sensor_id;sensor_type;location;lat;lon;timestamp;temperature;humidity
22114;DHT22;11223;49.968;9.062;2023-05-07T00:02:02;13.50;99.90
22114;DHT22;11223;49.968;9.062;2023-05-07T00:04:29;13.50;99.90
22114;DHT22;11223;49.968;9.062;2023-05-07T00:07:01;13.50;99.90
22114;DHT22;11223;49.968;9.062;2023-05-07T00:09:26;13.50;99.90
22114;DHT22;11223;49.968;9.062;2023-05-07T00:11:52;13.50;99.90
22114;DHT22;11223;49.968;9.062;2023-05-07T00:14:18;13.50;99.90
22114;DHT22;11223;49.968;9.062;2023-05-07T00:16:43;13.50;99.90
22114;DHT22;11223;49.968;9.062;2023-05-07T00:19:09;13.60;99.90
22114;DHT22;11223;49.968;9.062;2023-05-07T00:21:34;13.50;99.90
22114;DHT22;11223;49.968;9.062;2023-05-07T00:24:00;13.50;99.90
22114;DHT22;11223;49.968;9.062;2023-05-07T00:26:26;13.60;99.90
22114;DHT22;11223;49.968;9.062;2023-05-07T00:28:51;13.60;99.90
22114;DHT22;11223;49.968;9.062;2023-05-07T00:31:17;13.60;99.90
22114;DHT22;11223;49.968;9.062;2023-05-07T00:33:42;13.50;99.90
22114;DHT22;11223;49.968;9.062;2023-05-07T00:36:08;13.60;99.90
22114;DHT22;11223;49.968;9.062;2023-05-07T00:38:34;13.60;99.90
22114;DHT22;11223;49.968;9.062;2023-05-07T00:40:59;13.60;99.90
22114;DHT22;11223;49.968;9.062;2023-05-07T00:43:25;13.60;99.90
22114;DHT22;11223;49.968;9.062;2023-05-07T00:45:51;13.60;99.90
22114;DHT22;11223;49.968;9.062;2023-05-07T00:48:17;13.60;99.90
22114;DHT22;11223;49.968;9.062;2023-05-07T00:50:42;13.50;99.90
22114;DHT22;11223;49.968;9.062;2023-05-07T00:53:08;13.50;99.90
22114;DHT22;11223;49.968;9.062;2023-05-07T00:55:35;13.50;99.90
22114;DHT22;11223;49.968;9.062;2023-05-07T00:58:01;13.50;99.90
22114;DHT22;11223;49.968;9.062;2023-05-07T01:00:26;13.50;99.90
22114;DHT22;11223;49.968;9.062;2023-05-07T01:02:52;13.50;99.90
22114;DHT22;11223;49.968;9.062;2023-05-07T01:05:19;13.50;99.90
22114;DHT22;11223;49.968;9.062;2023-05-07T01:07:46;13.50;99.90
22114;DHT22;11223;49.968;9.062;2023-05-07T01:10:12;13.40;99.90
22114;DHT22;11223;49.968;9.062;2023-05-07T01:12:39;13.40;99.90
22114;DHT22;11223;49.968;9.062;2023-05-07T01:15:06;13.40;99.90
22114;DHT22;11223;49.968;9.062;2023-05-07T01:17:36;13.40;99.90
22114;DHT22;11223;49.968;9.062;2023-05-07T01:20:04;13.30;99.90
22114;DHT22;11223;49.968;9.062;2023-05-07T01:22:35;13.30;99.90
22114;DHT22;11223;49.968;9.062;2023-05-07T01:25:03;13.30;99.90
22114;DHT22;11223;49.968;9.062;2023-05-07T01:27:29;13.30;99.90
22114;DHT22;11223;49.968;9.062;2023-05-07T01:29:55;13.30;99.90
22114;DHT22;11223;49.968;9.062;2023-05-07T01:32:29;13.30;99.90
22114;DHT22;11223;49.968;9.062;2023-05-07T01:34:57;13.30;99.90
22114;DHT22;11223;49.968;9.062;2023-05-07T01:37:25;13.20;99.90
22114;DHT22;11223;49.968;9.062;2023-05-07T01:39:52;13.20;99.90
22114;DHT22;11223;49.968;9.062;2023-05-07T01:42:17;13.20;99.90
22114;DHT22;11223;49.968;9.062;2023-05-07T01:44:43;13.20;99.90
22114;DHT22;11223;49.968;9.062;2023-05-07T01:47:09;13.20;99.90
22114;DHT22;11223;49.968;9.062;2023-05-07T01:49:35;13.20;99.90
22114;DHT22;11223;49.968;9.062;2023-05-07T01:52:01;13.20;99.90
22114;DHT22;11223;49.968;9.062;2023-05-07T01:54:27;13.20;99.90
22114;DHT22;11223;49.968;9.062;2023-05-07T01:56:53;13.10;99.90
22114;DHT22;11223;49.968;9.062;2023-05-07T01:59:19;13.20;99.90
22114;DHT22;11223;49.968;9.062;2023-05-07T02:01:44;13.10;99.90
22114;DHT22;11223;49.968;9.062;2023-05-07T02:04:10;13.10;99.90
22114;DHT22;11223;49.968;9.062;2023-05-07T02:06:36;13.10;99.90
22114;DHT22;11223;49.968;9.062;2023-05-07T02:09:01;13.10;99.90
22114;DHT22;11223;49.968;9.062;2023-05-07T02:11:27;13.10;99.90
22114;DHT22;11223;49.968;9.062;2023-05-07T02:13:52;13.00;99.90
22114;DHT22;11223;49.968;9.062;2023-05-07T02:16:18;13.10;99.90
22114;DHT22;11223;49.968;9.062;2023-05-07T02:18:45;13.00;99.90
22114;DHT22;11223;49.968;9.062;2023-05-07T02:21:10;13.00;99.90
22114;DHT22;11223;49.968;9.062;2023-05-07T02:23:36;13.00;99.90
22114;DHT22;11223;49.968;9.062;2023-05-07T02:26:01;13.00;99.90
22114;DHT22;11223;49.968;9.062;2023-05-07T02:28:27;13.00;99.90
22114;DHT22;11223;49.968;9.062;2023-05-07T02:30:53;13.00;99.90
22114;DHT22;11223;49.968;9.062;2023-05-07T02:33:18;13.00;99.90
22114;DHT22;11223;49.968;9.062;2023-05-07T02:35:44;12.90;99.90
22114;DHT22;11223;49.968;9.062;2023-05-07T02:38:10;12.90;99.90
22114;DHT22;11223;49.968;9.062;2023-05-07T02:40:36;12.90;99.90
22114;DHT22;11223;49.968;9.062;2023-05-07T02:43:04;12.80;99.90
22114;DHT22;11223;49.968;9.062;2023-05-07T02:45:31;12.80;99.90
22114;DHT22;11223;49.968;9.062;2023-05-07T02:47:58;12.80;99.90
22114;DHT22;11223;49.968;9.062;2023-05-07T02:50:23;12.80;99.90
22114;DHT22;11223;49.968;9.062;2023-05-07T02:52:49;12.80;99.90
22114;DHT22;11223;49.968;9.062;2023-05-07T02:55:14;12.80;99.90
22114;DHT22;11223;49.968;9.062;2023-05-07T02:57:40;12.80;99.90
22114;DHT22;11223;49.968;9.062;2023-05-07T03:00:14;12.80;99.90
22114;DHT22;11223;49.968;9.062;2023-05-07T03:02:40;12.70;99.90
22114;DHT22;11223;49.968;9.062;2023-05-07T03:05:06;12.70;99.90
22114;DHT22;11223;49.968;9.062;2023-05-07T03:07:31;12.70;99.90
22114;DHT22;11223;49.968;9.062;2023-05-07T03:09:57;12.70;99.90
22114;DHT22;11223;49.968;9.062;2023-05-07T03:12:22;12.70;99.90
22114;DHT22;11223;49.968;9.062;2023-05-07T03:14:48;12.60;99.90
22114;DHT22;11223;49.968;9.062;2023-05-07T03:17:14;12.60;99.90
22114;DHT22;11223;49.968;9.062;2023-05-07T03:19:39;12.60;99.90
22114;DHT22;11223;49.968;9.062;2023-05-07T03:22:05;12.60;99.90
22114;DHT22;11223;49.968;9.062;2023-05-07T03:24:30;12.60;99.90
22114;DHT22;11223;49.968;9.062;2023-05-07T03:26:56;12.60;99.90
22114;DHT22;11223;49.968;9.062;2023-05-07T03:29:23;12.50;99.90
22114;DHT22;11223;49.968;9.062;2023-05-07T03:31:48;12.50;99.90
22114;DHT22;11223;49.968;9.062;2023-05-07T03:34:14;12.50;99.90
22114;DHT22;11223;49.968;9.062;2023-05-07T03:36:40;12.50;99.90
22114;DHT22;11223;49.968;9.062;2023-05-07T03:39:06;12.50;99.90
22114;DHT22;11223;49.968;9.062;2023-05-07T03:41:32;12.60;99.90
22114;DHT22;11223;49.968;9.062;2023-05-07T03:43:58;12.60;99.90
22114;DHT22;11223;49.968;9.062;2023-05-07T03:46:23;12.60;99.90
22114;DHT22;11223;49.968;9.062;2023-05-07T03:48:51;12.60;99.90
22114;DHT22;11223;49.968;9.062;2023-05-07T03:51:17;12.60;99.90
22114;DHT22;11223;49.968;9.062;2023-05-07T03:53:43;12.70;99.90
22114;DHT22;11223;49.968;9.062;2023-05-07T03:56:08;12.70;99.90
22114;DHT22;11223;49.968;9.062;2023-05-07T03:58:34;12.70;99.90
22114;DHT22;11223;49.968;9.062;2023-05-07T04:01:00;12.80;99.90
22114;DHT22;11223;49.968;9.062;2023-05-07T04:03:25;12.70;99.90
22114;DHT22;11223;49.968;9.062;2023-05-07T04:05:51;12.70;99.90
22114;DHT22;11223;49.968;9.062;2023-05-07T04:08:16;12.70;99.90
22114;DHT22;11223;49.968;9.062;2023-05-07T04:10:42;12.70;99.90
22114;DHT22;11223;49.968;9.062;2023-05-07T04:13:07;12.70;99.90
22114;DHT22;11223;49.968;9.062;2023-05-07T04:15:33;12.80;99.90
22114;DHT22;11223;49.968;9.062;2023-05-07T04:17:59;12.80;99.90
22114;DHT22;11223;49.968;9.062;2023-05-07T04:20:24;12.80;99.90
22114;DHT22;11223;49.968;9.062;2023-05-07T04:22:50;12.80;99.90
22114;DHT22;11223;49.968;9.062;2023-05-07T04:25:16;12.80;99.90
22114;DHT22;11223;49.968;9.062;2023-05-07T04:27:41;12.80;99.90
22114;DHT22;11223;49.968;9.062;2023-05-07T04:30:07;12.80;99.90
22114;DHT22;11223;49.968;9.062;2023-05-07T04:32:33;12.80;99.90
22114;DHT22;11223;49.968;9.062;2023-05-07T04:34:58;12.80;99.90
22114;DHT22;11223;49.968;9.062;2023-05-07T04:37:25;12.90;99.90
22114;DHT22;11223;49.968;9.062;2023-05-07T04:39:51;12.90;99.90
22114;DHT22;11223;49.968;9.062;2023-05-07T04:42:17;13.00;99.90
22114;DHT22;11223;49.968;9.062;2023-05-07T04:44:44;13.00;99.90
22114;DHT22;11223;49.968;9.062;2023-05-07T04:47:10;13.00;99.90
22114;DHT22;11223;49.968;9.062;2023-05-07T04:49:37;13.00;99.90
22114;DHT22;11223;49.968;9.062;2023-05-07T04:52:03;13.00;99.90
22114;DHT22;11223;49.968;9.062;2023-05-07T04:54:29;13.10;99.90
22114;DHT22;11223;49.968;9.062;2023-05-07T04:56:55;13.10;99.90
22114;DHT22;11223;49.968;9.062;2023-05-07T04:59:20;13.10;99.90
22114;DHT22;11223;49.968;9.062;2023-05-07T05:01:46;13.10;99.90
22114;DHT22;11223;49.968;9.062;2023-05-07T05:04:12;13.10;99.90
22114;DHT22;11223;49.968;9.062;2023-05-07T05:06:38;13.20;99.90
22114;DHT22;11223;49.968;9.062;2023-05-07T05:09:04;13.20;99.90
22114;DHT22;11223;49.968;9.062;2023-05-07T05:11:30;13.30;99.90
22114;DHT22;11223;49.968;9.062;2023-05-07T05:13:56;13.30;99.90
22114;DHT22;11223;49.968;9.062;2023-05-07T05:16:22;13.40;99.90
22114;DHT22;11223;49.968;9.062;2023-05-07T05:18:47;13.50;99.90
22114;DHT22;11223;49.968;9.062;2023-05-07T05:21:13;13.50;99.90
22114;DHT22;11223;49.968;9.062;2023-05-07T05:23:38;13.60;99.90
22114;DHT22;11223;49.968;9.062;2023-05-07T05:26:04;13.70;99.90
22114;DHT22;11223;49.968;9.062;2023-05-07T05:28:30;13.70;99.90
22114;DHT22;11223;49.968;9.062;2023-05-07T05:30:55;13.80;99.90
22114;DHT22;11223;49.968;9.062;2023-05-07T05:33:21;13.90;99.90
22114;DHT22;11223;49.968;9.062;2023-05-07T05:35:46;14.00;99.90
22114;DHT22;11223;49.968;9.062;2023-05-07T05:38:13;14.10;99.90
22114;DHT22;11223;49.968;9.062;2023-05-07T05:40:39;14.20;99.90
22114;DHT22;11223;49.968;9.062;2023-05-07T05:43:05;14.30;99.90
22114;DHT22;11223;49.968;9.062;2023-05-07T05:45:30;14.40;99.90
22114;DHT22;11223;49.968;9.062;2023-05-07T05:47:56;14.40;99.90
22114;DHT22;11223;49.968;9.062;2023-05-07T05:50:23;14.50;99.90
22114;DHT22;11223;49.968;9.062;2023-05-07T05:52:48;14.60;99.90
22114;DHT22;11223;49.968;9.062;2023-05-07T05:55:14;14.70;99.90
22114;DHT22;11223;49.968;9.062;2023-05-07T05:57:40;14.80;99.90
22114;DHT22;11223;49.968;9.062;2023-05-07T06:00:06;14.80;99.90
22114;DHT22;11223;49.968;9.062;2023-05-07T06:02:32;14.90;99.90
22114;DHT22;11223;49.968;9.062;2023-05-07T06:04:57;14.90;99.90
22114;DHT22;11223;49.968;9.062;2023-05-07T06:07:23;14.90;99.90
22114;DHT22;11223;49.968;9.062;2023-05-07T06:09:49;15.00;99.90
22114;DHT22;11223;49.968;9.062;2023-05-07T06:12:14;15.00;99.90
22114;DHT22;11223;49.968;9.062;2023-05-07T06:14:40;15.00;99.90
22114;DHT22;11223;49.968;9.062;2023-05-07T06:17:07;15.10;99.90
22114;DHT22;11223;49.968;9.062;2023-05-07T06:19:33;15.10;99.90
22114;DHT22;11223;49.968;9.062;2023-05-07T06:21:58;15.10;99.90
22114;DHT22;11223;49.968;9.062;2023-05-07T06:24:26;15.20;99.90
22114;DHT22;11223;49.968;9.062;2023-05-07T06:26:52;15.20;99.90
22114;DHT22;11223;49.968;9.062;2023-05-07T06:29:18;15.30;99.90
22114;DHT22;11223;49.968;9.062;2023-05-07T06:31:43;15.40;99.90
22114;DHT22;11223;49.968;9.062;2023-05-07T06:34:10;15.50;99.90
22114;DHT22;11223;49.968;9.062;2023-05-07T06:36:39;15.50;99.90
22114;DHT22;11223;49.968;9.062;2023-05-07T06:39:05;15.60;99.90
22114;DHT22;11223;49.968;9.062;2023-05-07T06:41:31;15.60;99.90
22114;DHT22;11223;49.968;9.062;2023-05-07T06:43:56;15.70;99.90
22114;DHT22;11223;49.968;9.062;2023-05-07T06:46:23;15.70;99.90
22114;DHT22;11223;49.968;9.062;2023-05-07T06:48:49;15.80;99.90
22114;DHT22;11223;49.968;9.062;2023-05-07T06:51:14;15.90;99.90
22114;DHT22;11223;49.968;9.062;2023-05-07T06:53:40;16.00;99.90
22114;DHT22;11223;49.968;9.062;2023-05-07T06:56:06;16.10;99.90
22114;DHT22;11223;49.968;9.062;2023-05-07T06:58:32;16.20;99.90
22114;DHT22;11223;49.968;9.062;2023-05-07T07:00:57;16.20;99.90
22114;DHT22;11223;49.968;9.062;2023-05-07T07:03:23;16.30;99.90
22114;DHT22;11223;49.968;9.062;2023-05-07T07:05:54;16.40;99.90
22114;DHT22;11223;49.968;9.062;2023-05-07T07:08:21;16.50;99.90
22114;DHT22;11223;49.968;9.062;2023-05-07T07:10:47;16.50;99.90
22114;DHT22;11223;49.968;9.062;2023-05-07T07:13:13;16.60;99.90
22114;DHT22;11223;49.968;9.062;2023-05-07T07:15:39;16.80;99.90
22114;DHT22;11223;49.968;9.062;2023-05-07T07:18:05;16.90;99.90
22114;DHT22;11223;49.968;9.062;2023-05-07T07:20:31;17.00;99.90
22114;DHT22;11223;49.968;9.062;2023-05-07T07:22:57;17.20;99.90
22114;DHT22;11223;49.968;9.062;2023-05-07T07:25:22;17.30;99.90
22114;DHT22;11223;49.968;9.062;2023-05-07T07:27:49;17.30;99.90
22114;DHT22;11223;49.968;9.062;2023-05-07T07:30:14;17.40;99.90
22114;DHT22;11223;49.968;9.062;2023-05-07T07:32:40;17.40;99.90
22114;DHT22;11223;49.968;9.062;2023-05-07T07:35:06;17.50;99.90
22114;DHT22;11223;49.968;9.062;2023-05-07T07:37:32;17.50;99.90
22114;DHT22;11223;49.968;9.062;2023-05-07T07:39:57;17.50;99.90
22114;DHT22;11223;49.968;9.062;2023-05-07T07:42:23;17.50;99.90
22114;DHT22;11223;49.968;9.062;2023-05-07T07:44:48;17.50;99.90
22114;DHT22;11223;49.968;9.062;2023-05-07T07:47:14;17.60;99.90
22114;DHT22;11223;49.968;9.062;2023-05-07T07:49:40;17.70;99.90
22114;DHT22;11223;49.968;9.062;2023-05-07T07:52:05;17.70;99.90
22114;DHT22;11223;49.968;9.062;2023-05-07T07:54:31;17.80;99.90
22114;DHT22;11223;49.968;9.062;2023-05-07T07:56:56;17.90;99.90
22114;DHT22;11223;49.968;9.062;2023-05-07T07:59:22;17.90;99.90
22114;DHT22;11223;49.968;9.062;2023-05-07T08:01:48;18.00;99.90
22114;DHT22;11223;49.968;9.062;2023-05-07T08:04:15;17.90;99.90
22114;DHT22;11223;49.968;9.062;2023-05-07T08:06:41;18.00;99.90
22114;DHT22;11223;49.968;9.062;2023-05-07T08:09:07;18.00;99.90
22114;DHT22;11223;49.968;9.062;2023-05-07T08:11:34;18.00;99.90
22114;DHT22;11223;49.968;9.062;2023-05-07T08:13:59;18.00;99.90
22114;DHT22;11223;49.968;9.062;2023-05-07T08:16:25;18.00;99.90
22114;DHT22;11223;49.968;9.062;2023-05-07T08:18:51;18.10;99.90
22114;DHT22;11223;49.968;9.062;2023-05-07T08:21:16;18.20;99.90
22114;DHT22;11223;49.968;9.062;2023-05-07T08:23:42;18.30;99.90
22114;DHT22;11223;49.968;9.062;2023-05-07T08:26:08;18.40;99.90
22114;DHT22;11223;49.968;9.062;2023-05-07T08:28:34;18.50;99.90
22114;DHT22;11223;49.968;9.062;2023-05-07T08:30:59;18.50;99.90
22114;DHT22;11223;49.968;9.062;2023-05-07T08:33:26;18.60;99.90
22114;DHT22;11223;49.968;9.062;2023-05-07T08:35:52;18.70;99.90
22114;DHT22;11223;49.968;9.062;2023-05-07T08:38:17;18.60;99.90
22114;DHT22;11223;49.968;9.062;2023-05-07T08:40:43;18.70;99.90
22114;DHT22;11223;49.968;9.062;2023-05-07T08:43:13;18.70;99.90
22114;DHT22;11223;49.968;9.062;2023-05-07T08:45:40;18.80;99.90
22114;DHT22;11223;49.968;9.062;2023-05-07T08:48:09;18.90;99.90
22114;DHT22;11223;49.968;9.062;2023-05-07T08:50:39;18.90;99.90
22114;DHT22;11223;49.968;9.062;2023-05-07T08:53:05;18.90;99.90
22114;DHT22;11223;49.968;9.062;2023-05-07T08:55:31;18.90;99.90
22114;DHT22;11223;49.968;9.062;2023-05-07T08:57:58;19.00;99.90
22114;DHT22;11223;49.968;9.062;2023-05-07T09:00:24;19.00;99.90
22114;DHT22;11223;49.968;9.062;2023-05-07T09:02:50;19.10;99.90
22114;DHT22;11223;49.968;9.062;2023-05-07T09:05:16;19.20;99.90
22114;DHT22;11223;49.968;9.062;2023-05-07T09:07:41;19.30;99.90
22114;DHT22;11223;49.968;9.062;2023-05-07T09:10:07;19.50;99.90
22114;DHT22;11223;49.968;9.062;2023-05-07T09:12:33;19.60;99.90
22114;DHT22;11223;49.968;9.062;2023-05-07T09:15:00;19.80;99.90
22114;DHT22;11223;49.968;9.062;2023-05-07T09:17:26;19.90;99.90
22114;DHT22;11223;49.968;9.062;2023-05-07T09:19:52;20.20;99.90
22114;DHT22;11223;49.968;9.062;2023-05-07T09:22:18;20.40;99.90
22114;DHT22;11223;49.968;9.062;2023-05-07T09:24:48;20.50;99.90
22114;DHT22;11223;49.968;9.062;2023-05-07T09:27:14;20.70;99.90
22114;DHT22;11223;49.968;9.062;2023-05-07T09:29:40;20.80;99.90
22114;DHT22;11223;49.968;9.062;2023-05-07T09:32:07;20.90;99.90
22114;DHT22;11223;49.968;9.062;2023-05-07T09:34:32;21.10;99.90
22114;DHT22;11223;49.968;9.062;2023-05-07T09:37:02;21.20;99.90
22114;DHT22;11223;49.968;9.062;2023-05-07T09:39:46;21.20;99.90
22114;DHT22;11223;49.968;9.062;2023-05-07T09:42:12;21.30;99.90
22114;DHT22;11223;49.968;9.062;2023-05-07T09:44:38;21.40;99.90
22114;DHT22;11223;49.968;9.062;2023-05-07T09:47:07;21.40;99.90
22114;DHT22;11223;49.968;9.062;2023-05-07T09:49:35;21.40;99.90
22114;DHT22;11223;49.968;9.062;2023-05-07T09:52:02;21.30;99.90
22114;DHT22;11223;49.968;9.062;2023-05-07T09:54:29;21.50;99.90
22114;DHT22;11223;49.968;9.062;2023-05-07T09:56:56;21.50;99.90
22114;DHT22;11223;49.968;9.062;2023-05-07T09:59:22;21.70;99.90
22114;DHT22;11223;49.968;9.062;2023-05-07T10:01:48;22.00;99.90
22114;DHT22;11223;49.968;9.062;2023-05-07T10:04:14;22.20;99.90
22114;DHT22;11223;49.968;9.062;2023-05-07T10:06:40;22.30;99.90
22114;DHT22;11223;49.968;9.062;2023-05-07T10:09:06;22.50;99.90
22114;DHT22;11223;49.968;9.062;2023-05-07T10:11:36;22.80;99.90
22114;DHT22;11223;49.968;9.062;2023-05-07T10:14:04;23.00;99.90
22114;DHT22;11223;49.968;9.062;2023-05-07T10:16:34;23.00;99.90
22114;DHT22;11223;49.968;9.062;2023-05-07T10:19:07;23.10;99.90
22114;DHT22;11223;49.968;9.062;2023-05-07T10:21:36;23.40;99.10
22114;DHT22;11223;49.968;9.062;2023-05-07T10:24:21;23.50;98.20
22114;DHT22;11223;49.968;9.062;2023-05-07T10:26:51;23.70;97.60
22114;DHT22;11223;49.968;9.062;2023-05-07T10:32:25;23.80;97.60
22114;DHT22;11223;49.968;9.062;2023-05-07T10:34:56;23.90;96.60
22114;DHT22;11223;49.968;9.062;2023-05-07T10:37:24;23.90;96.00
22114;DHT22;11223;49.968;9.062;2023-05-07T10:39:50;23.80;94.70
22114;DHT22;11223;49.968;9.062;2023-05-07T10:42:16;23.60;95.10
22114;DHT22;11223;49.968;9.062;2023-05-07T10:44:42;23.60;95.50
22114;DHT22;11223;49.968;9.062;2023-05-07T10:47:12;23.60;95.80
22114;DHT22;11223;49.968;9.062;2023-05-07T10:52:18;23.30;95.70
22114;DHT22;11223;49.968;9.062;2023-05-07T10:54:45;23.30;95.40
22114;DHT22;11223;49.968;9.062;2023-05-07T10:57:35;23.40;95.50
22114;DHT22;11223;49.968;9.062;2023-05-07T11:05:28;24.10;94.90
22114;DHT22;11223;49.968;9.062;2023-05-07T11:08:01;24.10;93.60
22114;DHT22;11223;49.968;9.062;2023-05-07T11:10:55;23.90;93.10
22114;DHT22;11223;49.968;9.062;2023-05-07T11:13:46;23.60;94.00
22114;DHT22;11223;49.968;9.062;2023-05-07T11:16:23;23.50;94.70
22114;DHT22;11223;49.968;9.062;2023-05-07T11:18:51;23.50;95.50
22114;DHT22;11223;49.968;9.062;2023-05-07T11:21:33;23.40;94.70
22114;DHT22;11223;49.968;9.062;2023-05-07T11:24:01;23.30;94.80
22114;DHT22;11223;49.968;9.062;2023-05-07T11:26:28;23.20;95.50
22114;DHT22;11223;49.968;9.062;2023-05-07T11:28:54;23.30;95.20
22114;DHT22;11223;49.968;9.062;2023-05-07T11:31:27;23.40;94.30
22114;DHT22;11223;49.968;9.062;2023-05-07T11:33:54;23.40;94.30
22114;DHT22;11223;49.968;9.062;2023-05-07T11:36:22;23.50;94.30
22114;DHT22;11223;49.968;9.062;2023-05-07T11:38:48;23.60;93.50
22114;DHT22;11223;49.968;9.062;2023-05-07T11:41:13;23.70;93.60
22114;DHT22;11223;49.968;9.062;2023-05-07T11:43:54;24.00;92.80
22114;DHT22;11223;49.968;9.062;2023-05-07T11:46:21;24.40;94.40
22114;DHT22;11223;49.968;9.062;2023-05-07T11:48:47;24.70;92.90
22114;DHT22;11223;49.968;9.062;2023-05-07T11:51:13;24.90;90.40
22114;DHT22;11223;49.968;9.062;2023-05-07T11:53:44;25.10;87.50
22114;DHT22;11223;49.968;9.062;2023-05-07T11:56:12;25.20;86.20
22114;DHT22;11223;49.968;9.062;2023-05-07T11:58:39;25.30;84.70
22114;DHT22;11223;49.968;9.062;2023-05-07T12:01:07;25.50;86.60
22114;DHT22;11223;49.968;9.062;2023-05-07T12:03:34;25.70;88.10
22114;DHT22;11223;49.968;9.062;2023-05-07T12:06:00;25.90;87.00
22114;DHT22;11223;49.968;9.062;2023-05-07T12:08:26;26.00;82.60
22114;DHT22;11223;49.968;9.062;2023-05-07T12:10:51;25.80;82.90
22114;DHT22;11223;49.968;9.062;2023-05-07T12:13:18;25.60;82.30
22114;DHT22;11223;49.968;9.062;2023-05-07T12:15:44;25.50;82.00
22114;DHT22;11223;49.968;9.062;2023-05-07T12:18:11;25.50;83.00
22114;DHT22;11223;49.968;9.062;2023-05-07T12:20:37;25.30;80.80
22114;DHT22;11223;49.968;9.062;2023-05-07T12:23:03;25.10;82.70
22114;DHT22;11223;49.968;9.062;2023-05-07T12:25:35;25.10;83.20
22114;DHT22;11223;49.968;9.062;2023-05-07T12:28:02;25.10;81.40
22114;DHT22;11223;49.968;9.062;2023-05-07T12:30:29;25.10;81.60
22114;DHT22;11223;49.968;9.062;2023-05-07T12:32:54;25.00;80.80
22114;DHT22;11223;49.968;9.062;2023-05-07T12:35:36;25.00;81.90
22114;DHT22;11223;49.968;9.062;2023-05-07T12:38:01;25.10;81.40
22114;DHT22;11223;49.968;9.062;2023-05-07T12:40:46;25.30;79.80
22114;DHT22;11223;49.968;9.062;2023-05-07T12:45:46;25.50;79.70
22114;DHT22;11223;49.968;9.062;2023-05-07T12:48:12;25.60;78.80
22114;DHT22;11223;49.968;9.062;2023-05-07T12:50:38;25.70;77.90
22114;DHT22;11223;49.968;9.062;2023-05-07T12:53:04;25.70;77.60
22114;DHT22;11223;49.968;9.062;2023-05-07T12:55:47;25.80;78.40
22114;DHT22;11223;49.968;9.062;2023-05-07T12:58:17;25.70;75.40
22114;DHT22;11223;49.968;9.062;2023-05-07T13:00:44;25.70;76.30
22114;DHT22;11223;49.968;9.062;2023-05-07T13:03:10;25.80;76.20
22114;DHT22;11223;49.968;9.062;2023-05-07T13:05:36;25.90;81.80
22114;DHT22;11223;49.968;9.062;2023-05-07T13:08:01;26.10;77.40
22114;DHT22;11223;49.968;9.062;2023-05-07T13:10:27;26.30;75.90
22114;DHT22;11223;49.968;9.062;2023-05-07T13:12:54;26.40;75.70
22114;DHT22;11223;49.968;9.062;2023-05-07T13:15:20;26.50;73.90
22114;DHT22;11223;49.968;9.062;2023-05-07T13:17:46;26.70;71.60
22114;DHT22;11223;49.968;9.062;2023-05-07T13:20:12;26.80;73.10
22114;DHT22;11223;49.968;9.062;2023-05-07T13:22:38;27.00;70.60
22114;DHT22;11223;49.968;9.062;2023-05-07T13:25:04;27.10;67.90
22114;DHT22;11223;49.968;9.062;2023-05-07T13:27:30;27.30;70.20
22114;DHT22;11223;49.968;9.062;2023-05-07T13:29:56;27.30;71.30
22114;DHT22;11223;49.968;9.062;2023-05-07T13:32:22;27.20;70.90
22114;DHT22;11223;49.968;9.062;2023-05-07T13:34:47;27.30;72.50
22114;DHT22;11223;49.968;9.062;2023-05-07T13:37:13;27.20;67.90
22114;DHT22;11223;49.968;9.062;2023-05-07T13:39:39;27.10;67.60
22114;DHT22;11223;49.968;9.062;2023-05-07T13:42:04;27.20;66.20
22114;DHT22;11223;49.968;9.062;2023-05-07T13:44:30;27.10;66.20
22114;DHT22;11223;49.968;9.062;2023-05-07T13:46:55;26.80;66.60
22114;DHT22;11223;49.968;9.062;2023-05-07T13:49:21;26.70;66.60
22114;DHT22;11223;49.968;9.062;2023-05-07T13:51:46;26.70;68.50
22114;DHT22;11223;49.968;9.062;2023-05-07T13:54:12;26.80;69.70
22114;DHT22;11223;49.968;9.062;2023-05-07T13:56:38;26.90;67.30
22114;DHT22;11223;49.968;9.062;2023-05-07T13:59:03;27.00;69.70
22114;DHT22;11223;49.968;9.062;2023-05-07T14:01:29;27.00;67.40
22114;DHT22;11223;49.968;9.062;2023-05-07T14:03:56;26.90;67.90
22114;DHT22;11223;49.968;9.062;2023-05-07T14:06:22;26.80;66.40
22114;DHT22;11223;49.968;9.062;2023-05-07T14:08:48;26.60;69.50
22114;DHT22;11223;49.968;9.062;2023-05-07T14:11:13;26.40;70.60
22114;DHT22;11223;49.968;9.062;2023-05-07T14:13:39;26.40;70.50
22114;DHT22;11223;49.968;9.062;2023-05-07T14:16:04;26.40;70.40
22114;DHT22;11223;49.968;9.062;2023-05-07T14:18:30;26.40;69.00
22114;DHT22;11223;49.968;9.062;2023-05-07T14:20:56;26.50;69.30
22114;DHT22;11223;49.968;9.062;2023-05-07T14:23:21;26.50;69.40
22114;DHT22;11223;49.968;9.062;2023-05-07T14:25:54;26.50;69.30
22114;DHT22;11223;49.968;9.062;2023-05-07T14:28:21;26.60;70.50
22114;DHT22;11223;49.968;9.062;2023-05-07T14:30:47;26.70;69.90
22114;DHT22;11223;49.968;9.062;2023-05-07T14:33:13;26.70;70.80
22114;DHT22;11223;49.968;9.062;2023-05-07T14:35:39;26.70;68.40
22114;DHT22;11223;49.968;9.062;2023-05-07T14:38:04;26.80;69.20
22114;DHT22;11223;49.968;9.062;2023-05-07T14:40:30;26.90;68.20
22114;DHT22;11223;49.968;9.062;2023-05-07T14:42:55;27.00;66.80
22114;DHT22;11223;49.968;9.062;2023-05-07T14:45:22;26.90;69.00
22114;DHT22;11223;49.968;9.062;2023-05-07T14:47:48;26.70;67.20
22114;DHT22;11223;49.968;9.062;2023-05-07T14:50:14;26.40;68.20
22114;DHT22;11223;49.968;9.062;2023-05-07T14:52:39;26.20;68.60
22114;DHT22;11223;49.968;9.062;2023-05-07T14:55:05;25.90;69.00
22114;DHT22;11223;49.968;9.062;2023-05-07T14:57:31;25.70;71.70
22114;DHT22;11223;49.968;9.062;2023-05-07T15:00:00;25.50;71.00
22114;DHT22;11223;49.968;9.062;2023-05-07T15:02:26;25.40;72.70
22114;DHT22;11223;49.968;9.062;2023-05-07T15:04:52;25.30;72.80
22114;DHT22;11223;49.968;9.062;2023-05-07T15:07:18;25.30;72.80
22114;DHT22;11223;49.968;9.062;2023-05-07T15:09:44;25.10;70.80
22114;DHT22;11223;49.968;9.062;2023-05-07T15:12:10;25.00;71.80
22114;DHT22;11223;49.968;9.062;2023-05-07T15:14:37;24.90;72.40
22114;DHT22;11223;49.968;9.062;2023-05-07T15:17:03;24.80;73.10
22114;DHT22;11223;49.968;9.062;2023-05-07T15:19:29;24.70;73.80
22114;DHT22;11223;49.968;9.062;2023-05-07T15:21:58;24.60;72.90
22114;DHT22;11223;49.968;9.062;2023-05-07T15:24:30;24.40;74.50
22114;DHT22;11223;49.968;9.062;2023-05-07T15:26:56;24.30;73.40
22114;DHT22;11223;49.968;9.062;2023-05-07T15:29:22;24.20;73.60
22114;DHT22;11223;49.968;9.062;2023-05-07T15:31:47;24.10;73.90
22114;DHT22;11223;49.968;9.062;2023-05-07T15:34:13;24.00;74.60
22114;DHT22;11223;49.968;9.062;2023-05-07T15:36:40;23.90;75.20
22114;DHT22;11223;49.968;9.062;2023-05-07T15:39:06;23.90;75.30
22114;DHT22;11223;49.968;9.062;2023-05-07T15:41:31;23.80;75.80